Time;durP1;ratioP1;P1;durP2;ratioP2;P2;SDS_P1;SDS_P2;PMS_P1;PMS_P2;Temp;Humidity;BMP_temperature;BMP_pressure;BME280_temperature;BME280_humidity;BME280_pressure;Samples;Min_cycle;Max_cycle;Signal;HPM_P1;HPM_P2
2023/06/19 00:00:47;104001.00;0.35;180.48;0.00;0.00;0.62;;;;;27.80;1.00;;;;;;2259832;40;3784;-88
2023/06/19 00:03:14;56798.00;0.19;98.94;0.00;0.00;0.62;;;;;27.90;1.00;;;;;;2255512;61;1031;-88
2023/06/19 00:13:16;539769.00;1.80;930.33;84610.00;0.28;147.00;;;;;27.10;1.00;;;;;;2256970;61;1413;-88
2023/06/19 00:20:47;759510.00;2.53;1310.60;78418.00;0.26;136.30;;;;;27.20;1.00;;;;;;2313410;40;3468;-89
2023/06/19 00:23:16;273945.00;0.91;473.13;86287.00;0.29;149.90;;;;;27.00;1.00;;;;;;2257501;55;3779;-89
2023/06/19 00:30:44;584207.00;1.95;1006.96;93327.00;0.31;162.05;;;;;26.70;1.00;;;;;;2257259;61;1894;-88
2023/06/19 00:38:12;999238.00;3.33;1731.12;130344.00;0.43;225.92;;;;;26.70;1.00;;;;;;2257529;61;1418;-88
2023/06/19 00:40:39;715331.00;2.38;1233.83;133624.00;0.45;231.58;;;;;26.60;1.00;;;;;;2255826;61;1528;-88
2023/06/19 00:45:35;827138.00;2.76;1428.49;78974.00;0.26;137.26;;;;;26.70;1.00;;;;;;2280416;55;3679;-89
2023/06/19 00:55:35;696666.00;2.32;1201.46;0.00;0.00;0.62;;;;;26.80;1.00;;;;;;2258840;61;1210;-91
2023/06/19 00:58:02;809686.00;2.70;1398.02;0.00;0.00;0.62;;;;;26.80;1.00;;;;;;2255829;61;1602;-87
2023/06/19 01:03:00;950554.00;3.17;1645.09;10299.00;0.03;18.47;;;;;26.70;1.00;;;;;;2257277;61;1152;-89
2023/06/19 01:10:39;684557.00;2.28;1180.47;0.00;0.00;0.62;;;;;26.10;1.00;;;;;;2257955;61;1965;-87
2023/06/19 01:15:35;635187.00;2.12;1095.02;44159.00;0.15;77.08;;;;;25.80;1.00;;;;;;2254555;61;1318;-88
2023/06/19 01:18:04;827717.00;2.76;1429.51;85851.00;0.29;149.14;;;;;26.00;1.00;;;;;;2251945;61;1413;-89
2023/06/19 01:30:29;1081217.00;3.60;1876.87;97648.00;0.33;169.51;;;;;26.40;1.00;;;;;;1557097;56;3625;-87
2023/06/19 01:33:04;665379.00;2.22;1147.25;44670.00;0.15;77.97;;;;;25.90;1.00;;;;;;2350282;40;3806;-87
2023/06/19 01:45:32;636211.00;2.12;1096.79;0.00;0.00;0.62;;;;;24.90;1.00;;;;;;2321461;41;3608;-90
2023/06/19 01:58:14;296755.00;0.99;512.34;0.00;0.00;0.62;;;;;23.90;1.00;;;;;;1970885;56;2424;-89
2023/06/19 02:18:14;649725.00;2.17;1120.16;18380.00;0.06;32.46;;;;;24.40;1.00;;;;;;2326287;55;3575;-89
2023/06/19 02:20:41;442202.00;1.47;762.37;0.00;0.00;0.62;;;;;24.30;1.00;;;;;;2319862;41;3859;-89
2023/06/19 02:25:37;403606.00;1.35;696.00;0.00;0.00;0.62;;;;;24.60;1.00;;;;;;1578534;40;3453;-89
2023/06/19 02:33:07;553525.00;1.85;954.04;0.00;0.00;0.62;;;;;24.90;1.00;;;;;;1591985;41;3602;-88
2023/06/19 02:48:12;471721.00;1.57;813.15;0.00;0.00;0.62;;;;;24.40;1.00;;;;;;1564433;56;3559;-89
2023/06/19 03:10:44;612530.00;2.04;1055.86;0.00;0.00;0.62;;;;;25.70;1.00;;;;;;1602620;40;3529;-89
2023/06/19 03:38:41;569961.00;1.90;982.38;0.00;0.00;0.62;;;;;24.10;1.00;;;;;;2261906;61;1386;-90
2023/06/19 03:44:10;848470.00;2.83;1465.79;49333.00;0.16;86.03;;;;;24.20;1.00;;;;;;2254072;61;1298;-89
2023/06/19 03:49:09;549326.00;1.83;946.80;0.00;0.00;0.62;;;;;24.10;1.00;;;;;;1954400;56;3576;-89
2023/06/19 04:50:21;642630.00;2.14;1107.89;0.00;0.00;0.62;;;;;24.70;1.00;;;;;;2254273;61;1947;-92
2023/06/19 05:47:27;622675.00;2.08;1073.39;0.00;0.00;0.62;;;;;24.70;1.00;;;;;;2442003;40;3761;31
2023/06/19 07:13:02;667984.00;2.23;1151.76;0.00;0.00;0.62;;;;;30.00;1.00;;;;;;2344932;40;3614;-87
2023/06/19 07:18:01;523484.00;1.74;902.27;0.00;0.00;0.62;;;;;29.50;1.00;;;;;;1625541;40;3646;-90
2023/06/19 07:20:29;184609.00;0.62;319.43;0.00;0.00;0.62;;;;;29.00;1.00;;;;;;2330150;41;3612;-90
2023/06/19 07:48:02;383641.00;1.28;661.68;0.00;0.00;0.62;;;;;32.30;1.00;;;;;;2313831;41;3622;-89
2023/06/19 07:57:56;466684.00;1.56;804.48;0.00;0.00;0.62;;;;;33.80;1.00;;;;;;2261563;61;1418;-89
2023/06/19 08:12:54;327153.00;1.09;564.59;0.00;0.00;0.62;;;;;32.50;1.00;;;;;;2367040;41;3465;-91
2023/06/19 08:18:15;346565.00;1.16;597.96;0.00;0.00;0.62;;;;;32.50;1.00;;;;;;2307029;40;3626;31
2023/06/19 08:20:42;526862.00;1.76;908.09;0.00;0.00;0.62;;;;;33.00;1.00;;;;;;1567755;56;3713;-91
2023/06/19 08:23:09;267742.00;0.89;462.46;0.00;0.00;0.62;;;;;33.10;1.00;;;;;;2304447;41;3616;-89
2023/06/19 08:25:36;229551.00;0.77;396.78;0.00;0.00;0.62;;;;;32.40;1.00;;;;;;2375724;40;3749;-89
2023/06/19 08:35:34;423131.00;1.41;729.57;75432.00;0.25;131.15;;;;;33.30;1.00;;;;;;2262186;61;1358;-91
2023/06/19 08:38:01;306206.00;1.02;528.59;70590.00;0.24;122.78;;;;;33.70;1.00;;;;;;2259588;61;1741;-90
2023/06/19 08:40:28;226478.00;0.75;391.49;78595.00;0.26;136.61;;;;;34.50;1.00;;;;;;2334042;41;3783;-89
2023/06/19 08:42:56;438878.00;1.46;756.65;75543.00;0.25;131.34;;;;;35.70;1.00;;;;;;2282663;55;3786;-88
2023/06/19 08:45:23;437367.00;1.46;754.05;76396.00;0.25;132.81;;;;;36.80;1.00;;;;;;2320911;41;3751;-88
2023/06/19 09:02:54;648059.00;2.16;1117.28;74655.00;0.25;129.80;;;;;34.40;1.00;;;;;;2284291;56;3809;-87
2023/06/19 09:10:32;916768.00;3.06;1585.59;9674.00;0.03;17.38;;;;;33.60;1.00;;;;;;2265529;61;1405;-88
2023/06/19 09:15:31;740219.00;2.47;1277.06;72045.00;0.24;125.29;;;;;34.10;1.00;;;;;;2262077;61;1143;-89
2023/06/19 09:18:04;262161.00;0.87;452.86;0.00;0.00;0.62;;;;;34.90;1.00;;;;;;2260428;61;1313;-88
2023/06/19 09:20:34;505295.00;1.68;870.94;68255.00;0.23;118.74;;;;;35.30;1.00;;;;;;2260271;61;1183;-91
2023/06/19 09:23:02;434087.00;1.45;748.41;0.00;0.00;0.62;;;;;35.40;1.00;;;;;;2274818;41;3610;-89
2023/06/19 09:33:12;751081.00;2.50;1295.94;0.00;0.00;0.62;;;;;34.10;1.00;;;;;;812178;41;3343;-88
2023/06/19 09:35:40;559324.00;1.86;964.03;25310.00;0.08;44.46;;;;;34.00;1.00;;;;;;2327119;40;3597;-88
2023/06/19 09:38:07;584792.00;1.95;1007.97;0.00;0.00;0.62;;;;;34.00;1.00;;;;;;2337969;55;3820;-91
2023/06/19 09:43:09;859052.00;2.86;1484.31;10657.00;0.04;19.09;;;;;34.90;1.00;;;;;;2303922;56;3579;-91
2023/06/19 09:45:37;118070.00;0.39;204.75;0.00;0.00;0.62;;;;;34.60;1.00;;;;;;2286729;40;3612;-89
2023/06/19 09:50:38;681372.00;2.27;1174.95;0.00;0.00;0.62;;;;;34.50;1.00;;;;;;2265717;61;1263;-88
2023/06/19 09:53:05;564574.00;1.88;973.09;0.00;0.00;0.62;;;;;33.20;1.00;;;;;;2275853;40;3535;-88
2023/06/19 09:55:35;481396.00;1.60;829.80;14281.00;0.05;25.37;;;;;33.10;1.00;;;;;;2267754;61;1717;-89
2023/06/19 09:58:05;609836.00;2.03;1051.21;2738.00;0.01;5.37;;;;;33.70;1.00;;;;;;2267591;61;1354;-87
2023/06/19 10:00:33;435026.00;1.45;750.03;44292.00;0.15;77.31;;;;;33.60;1.00;;;;;;2287649;41;3790;-87
2023/06/19 10:03:02;443078.00;1.48;763.88;0.00;0.00;0.62;;;;;33.30;1.00;;;;;;2267662;61;1657;-88
2023/06/19 10:05:30;214111.00;0.71;370.21;0.00;0.00;0.62;;;;;33.70;1.00;;;;;;2267634;61;2008;-88
2023/06/19 10:08:00;304493.00;1.01;525.64;0.00;0.00;0.62;;;;;33.70;1.00;;;;;;2267625;61;1559;-85
2023/06/19 10:13:02;722824.00;2.41;1246.84;0.00;0.00;0.62;;;;;33.90;1.00;;;;;;2333023;40;3448;-88
2023/06/19 10:15:30;615825.00;2.05;1061.55;34224.00;0.11;59.89;;;;;33.90;1.00;;;;;;2267561;61;1690;-90
2023/06/19 10:18:03;667308.00;2.22;1150.59;20056.00;0.07;35.37;;;;;34.20;1.00;;;;;;2267680;61;1421;-88
2023/06/19 10:23:05;1068664.00;3.56;1854.47;78076.00;0.26;135.71;;;;;34.10;1.00;;;;;;2261325;61;1208;-87
2023/06/19 10:25:39;337834.00;1.13;582.95;0.00;0.00;0.62;;;;;33.90;1.00;;;;;;2259603;61;1920;-90
2023/06/19 10:28:19;583235.00;1.94;1005.28;7952.00;0.03;14.40;;;;;33.60;1.00;;;;;;2269653;55;3813;-89
2023/06/19 10:33:18;397547.00;1.33;685.59;0.00;0.00;0.62;;;;;33.90;1.00;;;;;;2262218;61;1359;-87
2023/06/19 10:35:45;99980.00;0.33;173.54;0.00;0.00;0.62;;;;;33.10;1.00;;;;;;2260316;61;2301;-89
2023/06/19 11:10:44;974184.00;3.25;1686.80;19382.00;0.06;34.20;;;;;33.20;1.00;;;;;;2267808;56;3616;-89
2023/06/19 11:13:15;937687.00;3.13;1622.41;67248.00;0.22;117.00;;;;;33.80;1.00;;;;;;2297035;55;3750;-86
2023/06/19 11:15:42;398452.00;1.33;687.14;12771.00;0.04;22.75;;;;;33.90;1.00;;;;;;2268541;61;1569;-87
2023/06/19 11:18:09;637647.00;2.13;1099.27;42997.00;0.14;75.07;;;;;34.40;1.00;;;;;;2268563;61;1292;-88
2023/06/19 11:20:45;484898.00;1.62;835.83;6510.00;0.02;11.90;;;;;34.10;1.00;;;;;;2268523;61;1029;-90
2023/06/19 11:23:12;463030.00;1.54;798.20;28819.00;0.10;50.54;;;;;33.80;1.00;;;;;;2268455;61;1144;-89
2023/06/19 11:25:40;304695.00;1.02;525.99;0.00;0.00;0.62;;;;;33.50;1.00;;;;;;2268517;61;1991;-89
2023/06/19 11:28:14;575989.00;1.92;992.78;39115.00;0.13;68.36;;;;;32.70;1.00;;;;;;2268466;61;1699;-89
2023/06/19 11:30:43;18063.00;0.06;31.92;0.00;0.00;0.62;;;;;33.30;1.00;;;;;;2268558;61;940;-89
2023/06/19 11:33:21;74755.00;0.25;129.98;0.00;0.00;0.62;;;;;33.70;1.00;;;;;;2268454;61;1086;-88
2023/06/19 11:35:49;149703.00;0.50;259.30;0.00;0.00;0.62;;;;;33.70;1.00;;;;;;2268467;61;1282;-89
2023/06/19 11:38:21;225137.00;0.75;389.18;0.00;0.00;0.62;;;;;34.20;1.00;;;;;;2268486;61;1010;-87
2023/06/19 11:40:49;8519.00;0.03;15.38;0.00;0.00;0.62;;;;;34.30;1.00;;;;;;2268500;61;1141;-89
2023/06/19 11:43:26;0.00;0.00;0.62;0.00;0.00;0.62;;;;;34.40;1.00;;;;;;2268410;61;1109;-86
2023/06/19 11:45:53;83292.00;0.28;144.72;0.00;0.00;0.62;;;;;34.50;1.00;;;;;;2268426;61;1923;-87
2023/06/19 11:48:24;143242.00;0.48;248.16;0.00;0.00;0.62;;;;;33.90;1.00;;;;;;2268414;61;1133;-88
2023/06/19 11:50:52;255896.00;0.85;442.09;0.00;0.00;0.62;;;;;33.30;1.00;;;;;;2268279;61;1722;-89
2023/06/19 11:53:20;166917.00;0.56;288.96;0.00;0.00;0.62;;;;;32.70;1.00;;;;;;2268490;61;1778;-88
2023/06/19 11:55:47;431145.00;1.44;743.35;25150.00;0.08;44.19;;;;;32.50;1.00;;;;;;2268369;61;1107;-90
2023/06/19 11:58:15;624579.00;2.08;1076.68;55710.00;0.19;97.06;;;;;33.10;1.00;;;;;;2268418;61;1110;-88
2023/06/19 12:00:43;733044.00;2.44;1264.59;99966.00;0.33;173.51;;;;;33.80;1.00;;;;;;2268420;61;1798;-90
2023/06/19 12:03:11;503893.00;1.68;868.53;8286.00;0.03;14.98;;;;;34.00;1.00;;;;;;2268425;61;1125;-88
2023/06/19 12:05:38;362047.00;1.21;624.57;7621.00;0.03;13.83;;;;;34.00;1.00;;;;;;2268387;61;1910;-90
2023/06/19 12:08:06;712057.00;2.37;1228.15;33452.00;0.11;58.56;;;;;34.20;1.00;;;;;;2268462;61;1248;-89
2023/06/19 12:10:33;372387.00;1.24;642.34;0.00;0.00;0.62;;;;;34.20;1.00;;;;;;2268313;61;1332;-89
2023/06/19 12:13:00;727758.00;2.43;1255.41;36725.00;0.12;64.22;;;;;34.30;1.00;;;;;;2268273;61;1639;-88
2023/06/19 12:15:27;628412.00;2.09;1083.30;36932.00;0.12;64.58;;;;;34.20;1.00;;;;;;2268531;61;1055;-89
2023/06/19 12:17:57;621448.00;2.07;1071.27;9250.00;0.03;16.65;;;;;33.90;1.00;;;;;;2268455;61;1415;-86
2023/06/19 12:20:25;348195.00;1.16;600.76;8823.00;0.03;15.91;;;;;34.10;1.00;;;;;;2268401;61;1074;-88
2023/06/19 12:22:51;335488.00;1.12;578.92;17026.00;0.06;30.12;;;;;34.10;1.00;;;;;;2268324;61;1049;-88
2023/06/19 12:25:18;894900.00;2.98;1547.16;29891.00;0.10;52.39;;;;;34.30;1.00;;;;;;2268353;61;1080;-87
2023/06/19 12:27:45;879163.00;2.93;1519.55;55023.00;0.18;95.87;;;;;34.10;1.00;;;;;;2268355;61;1928;-90
2023/06/19 12:30:13;599254.00;2.00;1032.93;76304.00;0.25;132.65;;;;;33.60;1.00;;;;;;2268306;61;908;-88
2023/06/19 12:35:15;802751.00;2.68;1385.92;35993.00;0.12;62.96;;;;;33.90;1.00;;;;;;2261927;61;1471;-88
2023/06/19 12:40:18;279300.00;0.93;482.33;0.00;0.00;0.62;;;;;34.30;1.00;;;;;;1973067;60;1788;-88
2023/06/19 12:42:45;595223.00;1.98;1025.97;24319.00;0.08;42.75;;;;;34.20;1.00;;;;;;2264219;61;1024;-88
2023/06/19 12:45:12;834552.00;2.78;1441.45;62946.00;0.21;109.57;;;;;34.60;1.00;;;;;;2264266;61;1150;-85
2023/06/19 12:47:39;500001.00;1.67;861.83;27262.00;0.09;47.84;;;;;34.80;1.00;;;;;;2264174;61;2010;-89
2023/06/19 12:50:07;516672.00;1.72;890.53;12302.00;0.04;21.94;;;;;34.90;1.00;;;;;;2264283;61;1091;-88
2023/06/19 12:52:35;485096.00;1.62;836.17;60691.00;0.20;105.67;;;;;34.70;1.00;;;;;;2264194;61;1118;-87
2023/06/19 12:55:02;604882.00;2.02;1042.65;78749.00;0.26;136.88;;;;;34.60;1.00;;;;;;2264113;61;915;-89
2023/06/19 12:57:29;854578.00;2.85;1476.48;75076.00;0.25;130.53;;;;;35.00;1.00;;;;;;2264212;61;1285;-90
2023/06/19 12:59:56;1275584.00;4.25;2227.49;201054.00;0.67;347.74;;;;;34.50;1.00;;;;;;2264118;61;1070;-89
2023/06/19 13:04:53;1093603.00;3.65;1898.99;128895.00;0.43;223.42;;;;;34.40;1.00;;;;;;2265836;61;1402;-88
2023/06/19 13:07:20;599671.00;2.00;1033.65;47568.00;0.16;82.98;;;;;34.90;1.00;;;;;;2263976;61;1994;-89
2023/06/19 13:09:48;793706.00;2.65;1370.15;62019.00;0.21;107.97;;;;;35.00;1.00;;;;;;2264146;61;1029;-90
2023/06/19 13:12:15;948300.00;3.16;1641.11;68417.00;0.23;119.02;;;;;35.00;1.00;;;;;;2264204;61;2334;-89
2023/06/19 13:14:42;480303.00;1.60;827.92;8025.00;0.03;14.53;;;;;34.90;1.00;;;;;;2270832;40;3598;-90
2023/06/19 13:17:09;908303.00;3.03;1570.71;155427.00;0.52;269.16;;;;;34.80;1.00;;;;;;2270654;61;1433;-89
2023/06/19 13:19:36;304322.00;1.01;525.35;73167.00;0.24;127.23;;;;;34.90;1.00;;;;;;2272199;61;1163;-88
2023/06/19 13:22:04;245662.00;0.82;424.49;73962.00;0.25;128.61;;;;;34.60;1.00;;;;;;2272262;61;869;-88
2023/06/19 13:24:30;228815.00;0.76;395.51;73742.00;0.25;128.23;;;;;34.90;1.00;;;;;;2272307;61;1124;-88
2023/06/19 13:26:59;243148.00;0.81;420.17;67484.00;0.22;117.41;;;;;34.90;1.00;;;;;;2272077;61;2235;-89
2023/06/19 13:29:26;446716.00;1.49;770.13;73246.00;0.24;127.37;;;;;34.70;1.00;;;;;;2272162;61;1540;-87
2023/06/19 13:31:53;188207.00;0.63;325.62;82646.00;0.28;143.61;;;;;34.40;1.00;;;;;;2272202;61;1063;-90
2023/06/19 13:34:21;207783.00;0.69;359.32;65755.00;0.22;114.42;;;;;34.70;1.00;;;;;;2272041;61;1069;-89
2023/06/19 13:36:48;223144.00;0.74;385.75;69102.00;0.23;120.21;;;;;35.00;1.00;;;;;;2271907;61;1800;-88
2023/06/19 13:39:19;212381.00;0.71;367.23;74517.00;0.25;129.57;;;;;34.80;1.00;;;;;;2272133;61;1021;-90
2023/06/19 13:41:45;208204.00;0.69;360.04;67748.00;0.23;117.87;;;;;34.80;1.00;;;;;;2272003;61;1619;-88
2023/06/19 13:44:14;251136.00;0.84;433.90;67906.00;0.23;118.14;;;;;35.20;1.00;;;;;;2272093;61;2026;-90
2023/06/19 13:46:42;233280.00;0.78;403.19;76135.00;0.25;132.36;;;;;35.20;1.00;;;;;;2271937;61;1925;-90
2023/06/19 13:49:10;213191.00;0.71;368.63;73983.00;0.25;128.64;;;;;35.00;1.00;;;;;;2271887;61;1788;-87
2023/06/19 13:51:37;260202.00;0.87;449.50;74480.00;0.25;129.50;;;;;35.00;1.00;;;;;;2272094;61;1440;-89
2023/06/19 13:54:05;300475.00;1.00;518.74;68791.00;0.23;119.67;;;;;34.90;1.00;;;;;;2275176;56;3788;-88
2023/06/19 13:56:32;193256.00;0.64;334.31;60012.00;0.20;104.50;;;;;35.10;1.00;;;;;;2268152;61;1419;-88
2023/06/19 13:58:59;322025.00;1.07;555.78;72249.00;0.24;125.65;;;;;35.10;1.00;;;;;;2268118;61;1085;-89
2023/06/19 14:01:28;332192.00;1.11;573.25;117706.00;0.39;204.13;;;;;35.10;1.00;;;;;;2268060;61;1011;-88
2023/06/19 14:03:57;313525.00;1.05;541.17;68074.00;0.23;118.43;;;;;34.80;1.00;;;;;;2268086;61;1027;-87
2023/06/19 14:06:24;119264456.00;397.55;68719520.00;86073.00;0.29;149.53;;;;;34.10;1.00;;;;;;2267931;61;2006;-88
2023/06/19 14:08:51;170795.00;0.57;295.64;81031.00;0.27;140.82;;;;;34.20;1.00;;;;;;2268745;61;984;-88
2023/06/19 14:11:19;336515.00;1.12;580.68;99185.00;0.33;172.17;;;;;34.10;1.00;;;;;;2268781;61;910;-88
2023/06/19 14:13:46;270902.00;0.90;467.89;73990.00;0.25;128.65;;;;;34.20;1.00;;;;;;2268850;61;967;-88
2023/06/19 14:16:13;183333.00;0.61;317.23;63824.00;0.21;111.09;;;;;34.60;1.00;;;;;;2268739;61;1377;-89
2023/06/19 14:18:41;169399.00;0.56;293.23;71044.00;0.24;123.56;;;;;34.80;1.00;;;;;;2268765;61;1102;-87
2023/06/19 14:21:08;173672.00;0.58;300.59;60765.00;0.20;105.80;;;;;34.90;1.00;;;;;;2275848;55;3780;-87
2023/06/19 14:23:39;440033.00;1.47;758.64;64956.00;0.22;113.04;;;;;34.90;1.00;;;;;;2268624;61;1624;-88
2023/06/19 14:26:10;174626.00;0.58;302.23;76495.00;0.25;132.98;;;;;34.30;1.00;;;;;;2268600;61;1765;-86
2023/06/19 14:28:39;148469.00;0.49;257.17;0.00;0.00;0.62;;;;;34.50;1.00;;;;;;2268732;61;1035;-88
2023/06/19 14:31:08;11155.00;0.04;19.95;0.00;0.00;0.62;;;;;34.30;1.00;;;;;;2268716;61;1124;-90
2023/06/19 14:33:36;97729.00;0.33;169.65;0.00;0.00;0.62;;;;;34.70;1.00;;;;;;2284303;55;3771;-88
2023/06/19 14:36:05;9332.00;0.03;16.79;0.00;0.00;0.62;;;;;34.80;1.00;;;;;;2268498;61;1758;-89
2023/06/19 14:38:33;17117.00;0.06;30.28;0.00;0.00;0.62;;;;;35.00;1.00;;;;;;2268704;61;1010;-88
2023/06/19 14:41:01;0.00;0.00;0.62;0.00;0.00;0.62;;;;;34.90;1.00;;;;;;2268654;61;1688;-90
2023/06/19 14:43:28;24017.00;0.08;42.23;0.00;0.00;0.62;;;;;34.90;1.00;;;;;;2270240;55;3767;-88
2023/06/19 14:45:55;0.00;0.00;0.62;0.00;0.00;0.62;;;;;34.90;1.00;;;;;;2268540;61;2354;-88
2023/06/19 14:48:22;13258.00;0.04;23.59;0.00;0.00;0.62;;;;;35.20;1.00;;;;;;2268623;61;1929;-88
2023/06/19 14:50:49;12397.00;0.04;22.10;0.00;0.00;0.62;;;;;35.10;1.00;;;;;;2268711;61;1003;-87
2023/06/19 14:53:17;18133.00;0.06;32.04;0.00;0.00;0.62;;;;;34.50;1.00;;;;;;2268657;61;1601;-88
2023/06/19 14:55:45;51760.00;0.17;90.23;0.00;0.00;0.62;;;;;34.30;1.00;;;;;;2268667;61;916;-88
2023/06/19 14:58:13;64775.00;0.22;112.73;0.00;0.00;0.62;;;;;34.20;1.00;;;;;;2268571;61;1584;-87
2023/06/19 15:00:40;0.00;0.00;0.62;0.00;0.00;0.62;;;;;34.50;1.00;;;;;;2268593;61;1468;-90
2023/06/19 15:03:08;0.00;0.00;0.62;0.00;0.00;0.62;;;;;34.40;1.00;;;;;;2268594;61;995;-87
2023/06/19 15:05:35;90451.00;0.30;157.09;0.00;0.00;0.62;;;;;34.70;1.00;;;;;;2268641;61;907;-89
2023/06/19 15:08:03;141396.00;0.47;244.98;4122.00;0.01;7.76;;;;;34.80;1.00;;;;;;2268524;61;1988;-88
2023/06/19 15:10:31;52267.00;0.17;91.11;0.00;0.00;0.62;;;;;34.50;1.00;;;;;;2268702;61;1034;-89
2023/06/19 15:12:58;70470.00;0.23;122.57;0.00;0.00;0.62;;;;;34.60;1.00;;;;;;2268654;61;1079;-88
2023/06/19 15:15:25;0.00;0.00;0.62;0.00;0.00;0.62;;;;;34.40;1.00;;;;;;2268379;61;979;-88
2023/06/19 15:17:52;47755.00;0.16;83.30;0.00;0.00;0.62;;;;;34.30;1.00;;;;;;2268323;61;1702;-89
2023/06/19 15:20:20;0.00;0.00;0.62;0.00;0.00;0.62;;;;;34.30;1.00;;;;;;2268551;61;1647;-87
2023/06/19 15:22:47;0.00;0.00;0.62;0.00;0.00;0.62;;;;;34.30;1.00;;;;;;2268647;61;1694;-88
2023/06/19 15:25:14;0.00;0.00;0.62;0.00;0.00;0.62;;;;;34.10;1.00;;;;;;2268711;61;1097;-87
2023/06/19 15:27:43;56255.00;0.19;98.00;0.00;0.00;0.62;;;;;33.90;1.00;;;;;;2268524;61;1917;-89
2023/06/19 15:30:10;66585.00;0.22;115.86;0.00;0.00;0.62;;;;;34.10;1.00;;;;;;2268502;61;965;-88
2023/06/19 15:32:37;0.00;0.00;0.62;0.00;0.00;0.62;;;;;34.20;1.00;;;;;;2268643;61;885;-87
2023/06/19 15:35:05;31908.00;0.11;55.89;0.00;0.00;0.62;;;;;34.20;1.00;;;;;;2268675;61;1085;-87
2023/06/19 15:37:32;0.00;0.00;0.62;0.00;0.00;0.62;;;;;34.20;1.00;;;;;;2268449;61;1290;-88
2023/06/19 15:40:01;0.00;0.00;0.62;0.00;0.00;0.62;;;;;34.40;1.00;;;;;;2268645;61;1123;-86
2023/06/19 15:42:28;51288.00;0.17;89.41;0.00;0.00;0.62;;;;;34.10;1.00;;;;;;2268501;61;1182;-88
2023/06/19 15:44:56;94897.00;0.32;164.76;0.00;0.00;0.62;;;;;33.90;1.00;;;;;;2268428;61;1558;-88
2023/06/19 15:47:23;79645.00;0.27;138.42;0.00;0.00;0.62;;;;;33.90;1.00;;;;;;2268393;61;2013;-88
2023/06/19 15:52:19;122796.00;0.41;212.91;0.00;0.00;0.62;;;;;34.40;1.00;;;;;;2266179;61;1410;-89
2023/06/19 15:54:46;5561.00;0.02;10.26;0.00;0.00;0.62;;;;;33.90;1.00;;;;;;2264375;61;1030;-87
2023/06/19 15:57:13;19571.00;0.07;34.53;0.00;0.00;0.62;;;;;33.00;1.00;;;;;;2264207;61;1667;-87
2023/06/19 15:59:40;21267.00;0.07;37.46;0.00;0.00;0.62;;;;;32.10;1.00;;;;;;2264420;61;1097;-88
2023/06/19 16:02:09;45061.00;0.15;78.64;0.00;0.00;0.62;;;;;31.10;1.00;;;;;;2264339;61;1620;-89
2023/06/19 16:04:36;90895.00;0.30;157.85;0.00;0.00;0.62;;;;;31.10;1.00;;;;;;2264377;61;2322;-87
2023/06/19 16:07:03;121953.00;0.41;211.45;0.00;0.00;0.62;;;;;30.80;1.00;;;;;;2264267;61;2003;-90
2023/06/19 16:09:30;580532.00;1.94;1000.62;78830.00;0.26;137.02;;;;;31.10;1.00;;;;;;2264298;61;1075;-90
2023/06/19 16:16:56;918039.00;3.06;1587.82;96958.00;0.32;168.32;;;;;30.80;1.00;;;;;;2265588;61;1424;-89
2023/06/19 16:19:24;770471.00;2.57;1329.67;34992.00;0.12;61.22;;;;;30.70;1.00;;;;;;2267306;40;3620;-87
2023/06/19 16:21:51;1292883.00;4.31;2259.09;91462.00;0.30;158.83;;;;;30.30;1.00;;;;;;2268065;61;1807;-88
2023/06/19 16:24:18;926851.00;3.09;1603.33;26644.00;0.09;46.77;;;;;30.20;1.00;;;;;;2268354;61;1158;-88
2023/06/19 16:26:45;858056.00;2.86;1482.57;17396.00;0.06;30.76;;;;;30.10;1.00;;;;;;2269890;61;1997;-88
2023/06/19 16:29:12;1379253.00;4.60;2417.90;99364.00;0.33;172.47;;;;;30.30;1.00;;;;;;2272299;61;1106;-88
2023/06/19 16:31:39;412087.00;1.37;710.59;69709.00;0.23;121.26;;;;;30.40;1.00;;;;;;2272369;61;1659;-87
2023/06/19 16:34:06;295933.00;0.99;510.93;81879.00;0.27;142.28;;;;;30.70;1.00;;;;;;2272392;61;1495;-88
2023/06/19 16:36:34;222553.00;0.74;384.74;84336.00;0.28;146.53;;;;;31.00;1.00;;;;;;2272313;61;1372;-89
2023/06/19 16:39:01;254576.00;0.85;439.82;74845.00;0.25;130.13;;;;;31.10;1.00;;;;;;2272437;61;1101;-87
2023/06/19 16:41:28;421601.00;1.41;726.94;76355.00;0.25;132.74;;;;;31.00;1.00;;;;;;2272353;61;1062;-89
2023/06/19 16:43:55;212370.00;0.71;367.21;64550.00;0.22;112.34;;;;;30.80;1.00;;;;;;2272335;61;1008;-88
2023/06/19 16:46:22;53582.00;0.18;93.38;0.00;0.00;0.62;;;;;30.70;1.00;;;;;;2272319;61;1600;-89
2023/06/19 16:48:49;52765.00;0.18;91.97;0.00;0.00;0.62;;;;;30.60;1.00;;;;;;2272226;61;2346;-88
2023/06/19 16:51:15;169682.00;0.57;293.72;15302.00;0.05;27.13;;;;;30.30;1.00;;;;;;2272273;61;989;-88
2023/06/19 16:53:44;149493.00;0.50;258.93;32466.00;0.11;56.85;;;;;30.20;1.00;;;;;;2272408;61;995;-88
2023/06/19 16:56:10;97704.00;0.33;169.61;32002.00;0.11;56.05;;;;;29.80;1.00;;;;;;2272230;61;1766;-90
2023/06/19 16:58:37;13156.00;0.04;23.42;0.00;0.00;0.62;;;;;29.40;1.00;;;;;;2272227;61;1026;-88
2023/06/19 17:01:04;103718.00;0.35;179.99;0.00;0.00;0.62;;;;;29.20;1.00;;;;;;2272344;61;1118;-90
2023/06/19 17:03:31;292146.00;0.97;504.42;0.00;0.00;0.62;;;;;29.60;1.00;;;;;;2273618;55;3955;-89
2023/06/19 17:05:58;120737.00;0.40;209.35;0.00;0.00;0.62;;;;;29.90;1.00;;;;;;2268022;61;1684;-89
2023/06/19 17:08:25;32669.00;0.11;57.20;0.00;0.00;0.62;;;;;30.00;1.00;;;;;;2268177;61;1919;-87
2023/06/19 17:10:53;76847.00;0.26;133.59;0.00;0.00;0.62;;;;;30.30;1.00;;;;;;2268247;61;966;-88
2023/06/19 17:13:20;35760.00;0.12;62.55;0.00;0.00;0.62;;;;;30.50;1.00;;;;;;2268185;61;989;-88
2023/06/19 17:15:47;66302.00;0.22;115.37;0.00;0.00;0.62;;;;;30.60;1.00;;;;;;2268183;61;1015;-88
2023/06/19 17:18:14;707238.00;2.36;1219.79;20867.00;0.07;36.77;;;;;31.00;1.00;;;;;;2268183;61;1052;-89
2023/06/19 17:20:42;1905592.00;6.35;3432.24;261774.00;0.87;452.20;;;;;31.00;1.00;;;;;;2268209;61;1063;-89
2023/06/19 17:23:09;1333768.00;4.45;2334.04;168225.00;0.56;291.21;;;;;31.20;1.00;;;;;;2268171;61;994;-88
2023/06/19 17:25:36;252789.00;0.84;436.75;74383.00;0.25;129.33;;;;;31.20;1.00;;;;;;2268277;61;1658;-88
2023/06/19 17:28:04;308551.00;1.03;532.62;79497.00;0.26;138.17;;;;;31.30;1.00;;;;;;2268205;61;2002;-88
2023/06/19 17:30:31;218113.00;0.73;377.10;73386.00;0.24;127.61;;;;;31.30;1.00;;;;;;2268241;61;1137;-88
2023/06/19 17:32:58;37844.00;0.13;66.16;0.00;0.00;0.62;;;;;31.20;1.00;;;;;;2268194;61;975;-88
2023/06/19 17:35:25;196144.00;0.65;339.29;65350.00;0.22;113.72;;;;;31.30;1.00;;;;;;2268150;61;1090;-89
2023/06/19 17:37:52;79069.00;0.26;137.43;0.00;0.00;0.62;;;;;31.10;1.00;;;;;;2268054;61;1744;-88
2023/06/19 17:40:19;137410.00;0.46;238.11;25656.00;0.09;45.06;;;;;31.20;1.00;;;;;;2268128;61;963;-88
2023/06/19 17:42:46;27249.00;0.09;47.82;0.00;0.00;0.62;;;;;31.30;1.00;;;;;;2268086;61;1700;-89
2023/06/19 17:45:14;30602.00;0.10;53.63;0.00;0.00;0.62;;;;;31.20;1.00;;;;;;2268111;61;2252;-88
2023/06/19 17:47:42;237609.00;0.79;410.64;0.00;0.00;0.62;;;;;31.30;1.00;;;;;;2270514;40;3661;-88
2023/06/19 17:50:11;17554.00;0.06;31.03;0.00;0.00;0.62;;;;;31.20;1.00;;;;;;2268088;61;1086;-88
2023/06/19 17:52:38;1431329.00;4.77;2514.56;205059.00;0.68;354.63;;;;;31.40;1.00;;;;;;2268089;61;1093;-89
2023/06/19 17:55:06;919717.00;3.07;1590.78;169554.00;0.57;293.50;;;;;31.50;1.00;;;;;;2267956;61;1617;-88
2023/06/19 17:57:33;247556.00;0.83;427.75;75510.00;0.25;131.28;;;;;31.40;1.00;;;;;;2268036;61;1375;-89
2023/06/19 18:00:00;183999.00;0.61;318.38;56745.00;0.19;98.85;;;;;31.00;1.00;;;;;;2268095;61;1071;-90
2023/06/19 18:02:30;196423.00;0.65;339.77;77055.00;0.26;133.95;;;;;30.90;1.00;;;;;;2267906;61;899;-89
2023/06/19 18:04:56;31705.00;0.11;55.53;0.00;0.00;0.62;;;;;30.70;1.00;;;;;;2268015;61;1745;-88
2023/06/19 18:07:23;0.00;0.00;0.62;0.00;0.00;0.62;;;;;30.70;1.00;;;;;;2268040;61;2001;-90
2023/06/19 18:09:52;46742.00;0.16;81.55;0.00;0.00;0.62;;;;;30.60;1.00;;;;;;2268024;61;2035;-88
2023/06/19 18:12:19;8438.00;0.03;15.24;0.00;0.00;0.62;;;;;30.80;1.00;;;;;;2268094;61;1600;-88
2023/06/19 18:14:47;1554.00;0.01;3.31;0.00;0.00;0.62;;;;;30.80;1.00;;;;;;2268104;61;1102;-88